sensor_id;sensor_type;location;lat;lon;timestamp;P1;P2;P0
44674;PMS5003;30388;52.038;-1.478;2023-02-04T00:01:35;92;92;
44674;PMS5003;30388;52.038;-1.478;2023-02-04T00:04:03;122;122;
44674;PMS5003;30388;52.038;-1.478;2023-02-04T00:06:30;122;122;
44674;PMS5003;30388;52.038;-1.478;2023-02-04T00:08:57;122;120;
44674;PMS5003;30388;52.038;-1.478;2023-02-04T00:11:24;98;98;
44674;PMS5003;30388;52.038;-1.478;2023-02-04T00:13:51;21;21;
44674;PMS5003;30388;52.038;-1.478;2023-02-04T00:16:18;31;31;
44674;PMS5003;30388;52.038;-1.478;2023-02-04T00:18:45;28;28;
44674;PMS5003;30388;52.038;-1.478;2023-02-04T00:21:12;10;10;
44674;PMS5003;30388;52.038;-1.478;2023-02-04T00:23:39;3;3;
44674;PMS5003;30388;52.038;-1.478;2023-02-04T00:26:06;7;7;
44674;PMS5003;30388;52.038;-1.478;2023-02-04T00:28:33;13;13;
44674;PMS5003;30388;52.038;-1.478;2023-02-04T00:31:00;64;64;
44674;PMS5003;30388;52.038;-1.478;2023-02-04T00:33:27;22;22;
44674;PMS5003;30388;52.038;-1.478;2023-02-04T00:35:54;48;47;
44674;PMS5003;30388;52.038;-1.478;2023-02-04T00:38:21;78;78;
44674;PMS5003;30388;52.038;-1.478;2023-02-04T00:40:48;84;84;
44674;PMS5003;30388;52.038;-1.478;2023-02-04T00:43:15;68;68;
44674;PMS5003;30388;52.038;-1.478;2023-02-04T00:45:43;121;121;
44674;PMS5003;30388;52.038;-1.478;2023-02-04T00:48:10;141;141;
44674;PMS5003;30388;52.038;-1.478;2023-02-04T00:50:38;138;138;
44674;PMS5003;30388;52.038;-1.478;2023-02-04T00:53:05;141;141;
44674;PMS5003;30388;52.038;-1.478;2023-02-04T00:55:33;123;123;
44674;PMS5003;30388;52.038;-1.478;2023-02-04T00:58:00;128;128;
44674;PMS5003;30388;52.038;-1.478;2023-02-04T01:00:27;108;108;
44674;PMS5003;30388;52.038;-1.478;2023-02-04T01:02:54;131;131;
44674;PMS5003;30388;52.038;-1.478;2023-02-04T01:05:21;146;146;
44674;PMS5003;30388;52.038;-1.478;2023-02-04T01:07:48;144;141;
44674;PMS5003;30388;52.038;-1.478;2023-02-04T01:10:16;146;145;
44674;PMS5003;30388;52.038;-1.478;2023-02-04T01:12:43;125;125;
44674;PMS5003;30388;52.038;-1.478;2023-02-04T01:15:10;143;143;
44674;PMS5003;30388;52.038;-1.478;2023-02-04T01:17:38;150;149;
44674;PMS5003;30388;52.038;-1.478;2023-02-04T01:20:06;146;146;
44674;PMS5003;30388;52.038;-1.478;2023-02-04T01:22:35;129;129;
44674;PMS5003;30388;52.038;-1.478;2023-02-04T01:25:02;119;119;
44674;PMS5003;30388;52.038;-1.478;2023-02-04T01:27:29;130;128;
44674;PMS5003;30388;52.038;-1.478;2023-02-04T01:29:56;132;132;
44674;PMS5003;30388;52.038;-1.478;2023-02-04T01:32:24;144;142;
44674;PMS5003;30388;52.038;-1.478;2023-02-04T01:34:50;149;149;
44674;PMS5003;30388;52.038;-1.478;2023-02-04T01:37:18;144;144;
44674;PMS5003;30388;52.038;-1.478;2023-02-04T01:39:45;119;119;
44674;PMS5003;30388;52.038;-1.478;2023-02-04T01:42:12;133;133;
44674;PMS5003;30388;52.038;-1.478;2023-02-04T01:44:40;142;142;
44674;PMS5003;30388;52.038;-1.478;2023-02-04T01:47:07;143;143;
44674;PMS5003;30388;52.038;-1.478;2023-02-04T01:49:35;158;158;
44674;PMS5003;30388;52.038;-1.478;2023-02-04T01:52:02;153;153;
44674;PMS5003;30388;52.038;-1.478;2023-02-04T01:54:30;148;147;
44674;PMS5003;30388;52.038;-1.478;2023-02-04T01:56:58;140;138;
44674;PMS5003;30388;52.038;-1.478;2023-02-04T01:59:25;145;143;
44674;PMS5003;30388;52.038;-1.478;2023-02-04T02:01:53;138;138;
44674;PMS5003;30388;52.038;-1.478;2023-02-04T02:04:23;144;144;
44674;PMS5003;30388;52.038;-1.478;2023-02-04T02:06:57;143;143;
44674;PMS5003;30388;52.038;-1.478;2023-02-04T02:09:27;140;140;
44674;PMS5003;30388;52.038;-1.478;2023-02-04T02:11:56;145;144;
44674;PMS5003;30388;52.038;-1.478;2023-02-04T02:14:24;142;142;
44674;PMS5003;30388;52.038;-1.478;2023-02-04T02:16:51;140;140;
44674;PMS5003;30388;52.038;-1.478;2023-02-04T02:19:20;141;141;
44674;PMS5003;30388;52.038;-1.478;2023-02-04T02:21:58;139;138;
44674;PMS5003;30388;52.038;-1.478;2023-02-04T02:24:30;140;140;
44674;PMS5003;30388;52.038;-1.478;2023-02-04T02:26:58;145;145;
44674;PMS5003;30388;52.038;-1.478;2023-02-04T02:29:28;137;137;
44674;PMS5003;30388;52.038;-1.478;2023-02-04T02:31:56;139;139;
44674;PMS5003;30388;52.038;-1.478;2023-02-04T02:34:24;100;100;
44674;PMS5003;30388;52.038;-1.478;2023-02-04T02:36:53;77;77;
44674;PMS5003;30388;52.038;-1.478;2023-02-04T02:39:22;76;76;
44674;PMS5003;30388;52.038;-1.478;2023-02-04T02:41:51;46;46;
44674;PMS5003;30388;52.038;-1.478;2023-02-04T02:44:17;100;98;
44674;PMS5003;30388;52.038;-1.478;2023-02-04T02:46:45;111;111;
44674;PMS5003;30388;52.038;-1.478;2023-02-04T02:49:13;99;98;
44674;PMS5003;30388;52.038;-1.478;2023-02-04T02:51:43;106;106;
44674;PMS5003;30388;52.038;-1.478;2023-02-04T02:54:13;102;102;
44674;PMS5003;30388;52.038;-1.478;2023-02-04T02:56:46;56;56;
44674;PMS5003;30388;52.038;-1.478;2023-02-04T02:59:14;76;76;
44674;PMS5003;30388;52.038;-1.478;2023-02-04T03:01:43;95;95;
44674;PMS5003;30388;52.038;-1.478;2023-02-04T03:04:12;115;115;
44674;PMS5003;30388;52.038;-1.478;2023-02-04T03:06:40;101;101;
44674;PMS5003;30388;52.038;-1.478;2023-02-04T03:09:07;73;71;
44674;PMS5003;30388;52.038;-1.478;2023-02-04T03:11:35;101;99;
44674;PMS5003;30388;52.038;-1.478;2023-02-04T03:14:02;90;89;
44674;PMS5003;30388;52.038;-1.478;2023-02-04T03:16:30;71;71;
44674;PMS5003;30388;52.038;-1.478;2023-02-04T03:19:00;46;46;
44674;PMS5003;30388;52.038;-1.478;2023-02-04T03:21:29;31;31;
44674;PMS5003;30388;52.038;-1.478;2023-02-04T03:23:56;51;51;
44674;PMS5003;30388;52.038;-1.478;2023-02-04T03:26:23;15;15;
44674;PMS5003;30388;52.038;-1.478;2023-02-04T03:28:51;7;7;
44674;PMS5003;30388;52.038;-1.478;2023-02-04T03:31:20;19;17;
44674;PMS5003;30388;52.038;-1.478;2023-02-04T03:33:47;6;5;
44674;PMS5003;30388;52.038;-1.478;2023-02-04T03:36:14;6;6;
44674;PMS5003;30388;52.038;-1.478;2023-02-04T03:38:41;2;1;
44674;PMS5003;30388;52.038;-1.478;2023-02-04T03:41:08;14;12;
44674;PMS5003;30388;52.038;-1.478;2023-02-04T03:43:35;6;6;
44674;PMS5003;30388;52.038;-1.478;2023-02-04T03:46:02;4;3;
44674;PMS5003;30388;52.038;-1.478;2023-02-04T03:48:29;9;9;
44674;PMS5003;30388;52.038;-1.478;2023-02-04T03:50:56;5;2;
44674;PMS5003;30388;52.038;-1.478;2023-02-04T03:53:25;8;2;
44674;PMS5003;30388;52.038;-1.478;2023-02-04T03:55:52;4;3;
44674;PMS5003;30388;52.038;-1.478;2023-02-04T03:58:19;0;0;
44674;PMS5003;30388;52.038;-1.478;2023-02-04T04:00:47;4;3;
44674;PMS5003;30388;52.038;-1.478;2023-02-04T04:03:14;3;1;
44674;PMS5003;30388;52.038;-1.478;2023-02-04T04:05:41;3;2;
44674;PMS5003;30388;52.038;-1.478;2023-02-04T04:08:08;1;1;
44674;PMS5003;30388;52.038;-1.478;2023-02-04T04:10:35;1;1;
44674;PMS5003;30388;52.038;-1.478;2023-02-04T04:13:02;7;7;
44674;PMS5003;30388;52.038;-1.478;2023-02-04T04:15:29;9;8;
44674;PMS5003;30388;52.038;-1.478;2023-02-04T04:17:57;1;1;
44674;PMS5003;30388;52.038;-1.478;2023-02-04T04:20:24;5;3;
44674;PMS5003;30388;52.038;-1.478;2023-02-04T04:22:52;1;1;
44674;PMS5003;30388;52.038;-1.478;2023-02-04T04:25:19;3;0;
44674;PMS5003;30388;52.038;-1.478;2023-02-04T04:27:46;3;1;
44674;PMS5003;30388;52.038;-1.478;2023-02-04T04:30:13;1;1;
44674;PMS5003;30388;52.038;-1.478;2023-02-04T04:32:40;3;3;
44674;PMS5003;30388;52.038;-1.478;2023-02-04T04:35:07;8;8;
44674;PMS5003;30388;52.038;-1.478;2023-02-04T04:37:35;5;5;
44674;PMS5003;30388;52.038;-1.478;2023-02-04T04:40:02;9;9;
44674;PMS5003;30388;52.038;-1.478;2023-02-04T04:42:30;9;8;
44674;PMS5003;30388;52.038;-1.478;2023-02-04T04:44:57;5;5;
44674;PMS5003;30388;52.038;-1.478;2023-02-04T04:47:24;9;8;
44674;PMS5003;30388;52.038;-1.478;2023-02-04T04:49:51;4;4;
44674;PMS5003;30388;52.038;-1.478;2023-02-04T04:52:18;0;0;
44674;PMS5003;30388;52.038;-1.478;2023-02-04T04:54:45;3;1;
44674;PMS5003;30388;52.038;-1.478;2023-02-04T04:57:12;2;0;
44674;PMS5003;30388;52.038;-1.478;2023-02-04T04:59:40;3;3;
44674;PMS5003;30388;52.038;-1.478;2023-02-04T05:02:07;4;4;
44674;PMS5003;30388;52.038;-1.478;2023-02-04T05:04:34;4;4;
44674;PMS5003;30388;52.038;-1.478;2023-02-04T05:07:01;19;19;
44674;PMS5003;30388;52.038;-1.478;2023-02-04T05:09:28;7;7;
44674;PMS5003;30388;52.038;-1.478;2023-02-04T05:11:55;15;15;
44674;PMS5003;30388;52.038;-1.478;2023-02-04T05:14:22;53;53;
44674;PMS5003;30388;52.038;-1.478;2023-02-04T05:16:48;51;50;
44674;PMS5003;30388;52.038;-1.478;2023-02-04T05:19:16;124;124;
44674;PMS5003;30388;52.038;-1.478;2023-02-04T05:21:43;137;137;
44674;PMS5003;30388;52.038;-1.478;2023-02-04T05:24:11;140;140;
44674;PMS5003;30388;52.038;-1.478;2023-02-04T05:26:38;139;136;
44674;PMS5003;30388;52.038;-1.478;2023-02-04T05:29:05;139;138;
44674;PMS5003;30388;52.038;-1.478;2023-02-04T05:31:33;136;136;
44674;PMS5003;30388;52.038;-1.478;2023-02-04T05:34:00;137;137;
44674;PMS5003;30388;52.038;-1.478;2023-02-04T05:36:28;143;143;
44674;PMS5003;30388;52.038;-1.478;2023-02-04T05:38:55;141;141;
44674;PMS5003;30388;52.038;-1.478;2023-02-04T05:41:22;148;148;
44674;PMS5003;30388;52.038;-1.478;2023-02-04T05:43:49;142;142;
44674;PMS5003;30388;52.038;-1.478;2023-02-04T05:46:16;144;144;
44674;PMS5003;30388;52.038;-1.478;2023-02-04T05:48:42;145;145;
44674;PMS5003;30388;52.038;-1.478;2023-02-04T05:51:09;145;145;
44674;PMS5003;30388;52.038;-1.478;2023-02-04T05:53:36;144;144;
44674;PMS5003;30388;52.038;-1.478;2023-02-04T05:56:04;147;147;
44674;PMS5003;30388;52.038;-1.478;2023-02-04T05:58:31;139;138;
44674;PMS5003;30388;52.038;-1.478;2023-02-04T06:00:58;121;121;
44674;PMS5003;30388;52.038;-1.478;2023-02-04T06:03:26;73;73;
44674;PMS5003;30388;52.038;-1.478;2023-02-04T06:05:54;58;58;
44674;PMS5003;30388;52.038;-1.478;2023-02-04T06:08:21;37;37;
44674;PMS5003;30388;52.038;-1.478;2023-02-04T06:10:49;94;94;
44674;PMS5003;30388;52.038;-1.478;2023-02-04T06:13:16;86;86;
44674;PMS5003;30388;52.038;-1.478;2023-02-04T06:15:44;77;77;
44674;PMS5003;30388;52.038;-1.478;2023-02-04T06:18:11;13;13;
44674;PMS5003;30388;52.038;-1.478;2023-02-04T06:20:38;35;35;
44674;PMS5003;30388;52.038;-1.478;2023-02-04T06:23:05;33;33;
44674;PMS5003;30388;52.038;-1.478;2023-02-04T06:25:32;13;13;
44674;PMS5003;30388;52.038;-1.478;2023-02-04T06:27:59;94;94;
44674;PMS5003;30388;52.038;-1.478;2023-02-04T06:30:26;79;79;
44674;PMS5003;30388;52.038;-1.478;2023-02-04T06:32:53;113;113;
44674;PMS5003;30388;52.038;-1.478;2023-02-04T06:35:20;127;127;
44674;PMS5003;30388;52.038;-1.478;2023-02-04T06:37:48;132;130;
44674;PMS5003;30388;52.038;-1.478;2023-02-04T06:40:15;134;134;
44674;PMS5003;30388;52.038;-1.478;2023-02-04T06:42:42;124;124;
44674;PMS5003;30388;52.038;-1.478;2023-02-04T06:45:09;127;127;
44674;PMS5003;30388;52.038;-1.478;2023-02-04T06:47:36;140;139;
44674;PMS5003;30388;52.038;-1.478;2023-02-04T06:50:03;138;138;
44674;PMS5003;30388;52.038;-1.478;2023-02-04T06:52:31;122;122;
44674;PMS5003;30388;52.038;-1.478;2023-02-04T06:54:58;119;119;
44674;PMS5003;30388;52.038;-1.478;2023-02-04T06:57:25;129;129;
44674;PMS5003;30388;52.038;-1.478;2023-02-04T06:59:51;127;125;
44674;PMS5003;30388;52.038;-1.478;2023-02-04T07:02:18;138;138;
44674;PMS5003;30388;52.038;-1.478;2023-02-04T07:04:46;140;140;
44674;PMS5003;30388;52.038;-1.478;2023-02-04T07:07:13;125;125;
44674;PMS5003;30388;52.038;-1.478;2023-02-04T07:09:40;129;129;
44674;PMS5003;30388;52.038;-1.478;2023-02-04T07:12:07;141;139;
44674;PMS5003;30388;52.038;-1.478;2023-02-04T07:14:35;136;136;
44674;PMS5003;30388;52.038;-1.478;2023-02-04T07:17:01;143;143;
44674;PMS5003;30388;52.038;-1.478;2023-02-04T07:19:28;135;135;
44674;PMS5003;30388;52.038;-1.478;2023-02-04T07:21:56;133;131;
44674;PMS5003;30388;52.038;-1.478;2023-02-04T07:24:24;141;141;
44674;PMS5003;30388;52.038;-1.478;2023-02-04T07:26:51;141;141;
44674;PMS5003;30388;52.038;-1.478;2023-02-04T07:29:19;142;142;
44674;PMS5003;30388;52.038;-1.478;2023-02-04T07:31:46;139;139;
44674;PMS5003;30388;52.038;-1.478;2023-02-04T07:34:13;141;141;
44674;PMS5003;30388;52.038;-1.478;2023-02-04T07:36:40;142;142;
44674;PMS5003;30388;52.038;-1.478;2023-02-04T07:39:07;144;143;
44674;PMS5003;30388;52.038;-1.478;2023-02-04T07:41:34;134;134;
44674;PMS5003;30388;52.038;-1.478;2023-02-04T07:44:02;139;139;
44674;PMS5003;30388;52.038;-1.478;2023-02-04T07:46:30;134;134;
44674;PMS5003;30388;52.038;-1.478;2023-02-04T07:48:57;141;141;
44674;PMS5003;30388;52.038;-1.478;2023-02-04T07:51:25;146;146;
44674;PMS5003;30388;52.038;-1.478;2023-02-04T07:53:52;144;144;
44674;PMS5003;30388;52.038;-1.478;2023-02-04T07:56:20;138;138;
44674;PMS5003;30388;52.038;-1.478;2023-02-04T07:58:48;140;139;
44674;PMS5003;30388;52.038;-1.478;2023-02-04T08:01:15;136;136;
44674;PMS5003;30388;52.038;-1.478;2023-02-04T08:03:42;149;149;
44674;PMS5003;30388;52.038;-1.478;2023-02-04T08:06:10;139;139;
44674;PMS5003;30388;52.038;-1.478;2023-02-04T08:08:37;125;125;
44674;PMS5003;30388;52.038;-1.478;2023-02-04T08:11:04;135;135;
44674;PMS5003;30388;52.038;-1.478;2023-02-04T08:13:31;138;138;
44674;PMS5003;30388;52.038;-1.478;2023-02-04T08:15:58;94;94;
44674;PMS5003;30388;52.038;-1.478;2023-02-04T08:18:25;134;131;
44674;PMS5003;30388;52.038;-1.478;2023-02-04T08:20:53;118;118;
44674;PMS5003;30388;52.038;-1.478;2023-02-04T08:23:20;140;137;
44674;PMS5003;30388;52.038;-1.478;2023-02-04T08:25:47;109;109;
44674;PMS5003;30388;52.038;-1.478;2023-02-04T08:28:13;123;123;
44674;PMS5003;30388;52.038;-1.478;2023-02-04T08:30:41;116;113;
44674;PMS5003;30388;52.038;-1.478;2023-02-04T08:33:08;124;123;
44674;PMS5003;30388;52.038;-1.478;2023-02-04T08:35:35;72;72;
44674;PMS5003;30388;52.038;-1.478;2023-02-04T08:38:02;101;100;
44674;PMS5003;30388;52.038;-1.478;2023-02-04T08:40:30;115;115;
44674;PMS5003;30388;52.038;-1.478;2023-02-04T08:42:57;129;129;
44674;PMS5003;30388;52.038;-1.478;2023-02-04T08:45:24;90;90;
44674;PMS5003;30388;52.038;-1.478;2023-02-04T08:47:52;138;138;
44674;PMS5003;30388;52.038;-1.478;2023-02-04T08:50:19;105;105;
44674;PMS5003;30388;52.038;-1.478;2023-02-04T08:52:46;109;108;
44674;PMS5003;30388;52.038;-1.478;2023-02-04T08:55:14;148;148;
44674;PMS5003;30388;52.038;-1.478;2023-02-04T08:57:41;140;139;
44674;PMS5003;30388;52.038;-1.478;2023-02-04T09:00:09;135;135;
44674;PMS5003;30388;52.038;-1.478;2023-02-04T09:02:37;129;129;
44674;PMS5003;30388;52.038;-1.478;2023-02-04T09:05:05;141;140;
44674;PMS5003;30388;52.038;-1.478;2023-02-04T09:07:32;136;136;
44674;PMS5003;30388;52.038;-1.478;2023-02-04T09:09:59;146;144;
44674;PMS5003;30388;52.038;-1.478;2023-02-04T09:12:27;133;133;
44674;PMS5003;30388;52.038;-1.478;2023-02-04T09:14:54;137;136;
44674;PMS5003;30388;52.038;-1.478;2023-02-04T09:17:21;143;143;
44674;PMS5003;30388;52.038;-1.478;2023-02-04T09:19:49;145;145;
44674;PMS5003;30388;52.038;-1.478;2023-02-04T09:22:16;141;141;
44674;PMS5003;30388;52.038;-1.478;2023-02-04T09:24:44;136;136;
44674;PMS5003;30388;52.038;-1.478;2023-02-04T09:27:10;129;129;
44674;PMS5003;30388;52.038;-1.478;2023-02-04T09:29:37;141;141;
44674;PMS5003;30388;52.038;-1.478;2023-02-04T09:32:04;143;143;
44674;PMS5003;30388;52.038;-1.478;2023-02-04T09:34:31;127;127;
44674;PMS5003;30388;52.038;-1.478;2023-02-04T09:36:59;134;134;
44674;PMS5003;30388;52.038;-1.478;2023-02-04T09:39:26;142;142;
44674;PMS5003;30388;52.038;-1.478;2023-02-04T09:41:53;121;121;
44674;PMS5003;30388;52.038;-1.478;2023-02-04T09:44:22;92;92;
44674;PMS5003;30388;52.038;-1.478;2023-02-04T09:46:53;90;89;
44674;PMS5003;30388;52.038;-1.478;2023-02-04T09:49:24;80;80;
44674;PMS5003;30388;52.038;-1.478;2023-02-04T09:51:53;59;59;
44674;PMS5003;30388;52.038;-1.478;2023-02-04T09:54:21;23;22;
44674;PMS5003;30388;52.038;-1.478;2023-02-04T09:56:50;61;60;
44674;PMS5003;30388;52.038;-1.478;2023-02-04T09:59:18;51;51;
44674;PMS5003;30388;52.038;-1.478;2023-02-04T10:01:50;69;69;
44674;PMS5003;30388;52.038;-1.478;2023-02-04T10:04:22;52;52;
44674;PMS5003;30388;52.038;-1.478;2023-02-04T10:06:51;92;92;
44674;PMS5003;30388;52.038;-1.478;2023-02-04T10:09:18;11;11;
44674;PMS5003;30388;52.038;-1.478;2023-02-04T10:11:46;115;115;
44674;PMS5003;30388;52.038;-1.478;2023-02-04T10:14:15;44;44;
44674;PMS5003;30388;52.038;-1.478;2023-02-04T10:16:47;126;126;
44674;PMS5003;30388;52.038;-1.478;2023-02-04T10:19:18;139;139;
44674;PMS5003;30388;52.038;-1.478;2023-02-04T10:21:46;125;124;
44674;PMS5003;30388;52.038;-1.478;2023-02-04T10:24:14;137;136;
44674;PMS5003;30388;52.038;-1.478;2023-02-04T10:26:44;132;132;
44674;PMS5003;30388;52.038;-1.478;2023-02-04T10:29:12;142;142;
44674;PMS5003;30388;52.038;-1.478;2023-02-04T10:31:41;110;110;
44674;PMS5003;30388;52.038;-1.478;2023-02-04T10:34:11;135;134;
44674;PMS5003;30388;52.038;-1.478;2023-02-04T10:36:41;141;141;
44674;PMS5003;30388;52.038;-1.478;2023-02-04T10:39:13;136;136;
44674;PMS5003;30388;52.038;-1.478;2023-02-04T10:41:44;131;131;
44674;PMS5003;30388;52.038;-1.478;2023-02-04T10:44:13;93;93;
44674;PMS5003;30388;52.038;-1.478;2023-02-04T10:46:42;107;107;
44674;PMS5003;30388;52.038;-1.478;2023-02-04T10:49:18;141;141;
44674;PMS5003;30388;52.038;-1.478;2023-02-04T10:51:48;142;142;
44674;PMS5003;30388;52.038;-1.478;2023-02-04T10:54:18;127;127;
44674;PMS5003;30388;52.038;-1.478;2023-02-04T10:56:47;133;133;
44674;PMS5003;30388;52.038;-1.478;2023-02-04T10:59:18;135;134;
44674;PMS5003;30388;52.038;-1.478;2023-02-04T11:01:49;128;128;
44674;PMS5003;30388;52.038;-1.478;2023-02-04T11:04:16;99;99;
44674;PMS5003;30388;52.038;-1.478;2023-02-04T11:06:44;146;143;
44674;PMS5003;30388;52.038;-1.478;2023-02-04T11:09:11;142;142;
44674;PMS5003;30388;52.038;-1.478;2023-02-04T11:11:44;142;142;
44674;PMS5003;30388;52.038;-1.478;2023-02-04T11:14:21;134;134;
44674;PMS5003;30388;52.038;-1.478;2023-02-04T11:16:51;141;141;
44674;PMS5003;30388;52.038;-1.478;2023-02-04T11:19:29;133;133;
44674;PMS5003;30388;52.038;-1.478;2023-02-04T11:22:07;101;101;
44674;PMS5003;30388;52.038;-1.478;2023-02-04T11:24:47;53;53;
44674;PMS5003;30388;52.038;-1.478;2023-02-04T11:27:23;120;119;
44674;PMS5003;30388;52.038;-1.478;2023-02-04T11:30:04;131;130;
44674;PMS5003;30388;52.038;-1.478;2023-02-04T11:32:33;134;133;
44674;PMS5003;30388;52.038;-1.478;2023-02-04T11:35:06;121;121;
44674;PMS5003;30388;52.038;-1.478;2023-02-04T11:37:47;128;128;
44674;PMS5003;30388;52.038;-1.478;2023-02-04T11:40:30;103;103;
44674;PMS5003;30388;52.038;-1.478;2023-02-04T11:43:02;84;83;
44674;PMS5003;30388;52.038;-1.478;2023-02-04T11:45:35;133;132;
44674;PMS5003;30388;52.038;-1.478;2023-02-04T11:48:09;143;142;
44674;PMS5003;30388;52.038;-1.478;2023-02-04T11:50:39;144;144;
44674;PMS5003;30388;52.038;-1.478;2023-02-04T11:53:08;141;141;
44674;PMS5003;30388;52.038;-1.478;2023-02-04T11:55:42;120;120;
44674;PMS5003;30388;52.038;-1.478;2023-02-04T11:58:11;105;103;
44674;PMS5003;30388;52.038;-1.478;2023-02-04T12:00:41;100;100;
44674;PMS5003;30388;52.038;-1.478;2023-02-04T12:03:19;133;133;
44674;PMS5003;30388;52.038;-1.478;2023-02-04T12:05:48;135;135;
44674;PMS5003;30388;52.038;-1.478;2023-02-04T12:08:24;140;140;
44674;PMS5003;30388;52.038;-1.478;2023-02-04T12:11:00;135;134;
44674;PMS5003;30388;52.038;-1.478;2023-02-04T12:13:30;136;136;
44674;PMS5003;30388;52.038;-1.478;2023-02-04T12:15:58;90;90;
44674;PMS5003;30388;52.038;-1.478;2023-02-04T12:18:27;137;136;
44674;PMS5003;30388;52.038;-1.478;2023-02-04T12:20:55;80;80;
44674;PMS5003;30388;52.038;-1.478;2023-02-04T12:23:25;79;77;
44674;PMS5003;30388;52.038;-1.478;2023-02-04T12:25:53;93;88;
44674;PMS5003;30388;52.038;-1.478;2023-02-04T12:28:20;112;112;
44674;PMS5003;30388;52.038;-1.478;2023-02-04T12:30:48;98;98;
44674;PMS5003;30388;52.038;-1.478;2023-02-04T12:33:15;117;117;
44674;PMS5003;30388;52.038;-1.478;2023-02-04T12:35:42;158;157;
44674;PMS5003;30388;52.038;-1.478;2023-02-04T12:38:10;84;82;
44674;PMS5003;30388;52.038;-1.478;2023-02-04T12:40:37;132;129;
44674;PMS5003;30388;52.038;-1.478;2023-02-04T12:43:05;116;109;
44674;PMS5003;30388;52.038;-1.478;2023-02-04T12:45:32;149;144;
44674;PMS5003;30388;52.038;-1.478;2023-02-04T12:48:00;165;161;
44674;PMS5003;30388;52.038;-1.478;2023-02-04T12:50:27;189;189;
44674;PMS5003;30388;52.038;-1.478;2023-02-04T12:52:55;101;94;
44674;PMS5003;30388;52.038;-1.478;2023-02-04T12:55:25;75;75;
44674;PMS5003;30388;52.038;-1.478;2023-02-04T12:57:54;122;122;
44674;PMS5003;30388;52.038;-1.478;2023-02-04T13:00:22;86;84;
44674;PMS5003;30388;52.038;-1.478;2023-02-04T13:02:51;56;56;
44674;PMS5003;30388;52.038;-1.478;2023-02-04T13:05:18;26;26;
44674;PMS5003;30388;52.038;-1.478;2023-02-04T13:07:46;54;53;
44674;PMS5003;30388;52.038;-1.478;2023-02-04T13:10:16;123;123;
44674;PMS5003;30388;52.038;-1.478;2023-02-04T13:12:43;56;54;
44674;PMS5003;30388;52.038;-1.478;2023-02-04T13:15:11;72;69;
44674;PMS5003;30388;52.038;-1.478;2023-02-04T13:17:38;64;64;
44674;PMS5003;30388;52.038;-1.478;2023-02-04T13:20:05;56;56;
44674;PMS5003;30388;52.038;-1.478;2023-02-04T13:22:34;143;143;
44674;PMS5003;30388;52.038;-1.478;2023-02-04T13:25:01;100;100;
44674;PMS5003;30388;52.038;-1.478;2023-02-04T13:27:30;39;39;
44674;PMS5003;30388;52.038;-1.478;2023-02-04T13:29:57;32;32;
44674;PMS5003;30388;52.038;-1.478;2023-02-04T13:32:24;112;112;
44674;PMS5003;30388;52.038;-1.478;2023-02-04T13:34:52;143;141;
44674;PMS5003;30388;52.038;-1.478;2023-02-04T13:37:19;157;156;
44674;PMS5003;30388;52.038;-1.478;2023-02-04T13:39:48;137;137;
44674;PMS5003;30388;52.038;-1.478;2023-02-04T13:42:18;136;136;
44674;PMS5003;30388;52.038;-1.478;2023-02-04T13:44:47;103;103;
44674;PMS5003;30388;52.038;-1.478;2023-02-04T13:47:15;81;81;
44674;PMS5003;30388;52.038;-1.478;2023-02-04T13:49:49;106;104;
44674;PMS5003;30388;52.038;-1.478;2023-02-04T13:52:18;5;5;
44674;PMS5003;30388;52.038;-1.478;2023-02-04T13:54:47;12;12;
44674;PMS5003;30388;52.038;-1.478;2023-02-04T13:57:14;148;148;
44674;PMS5003;30388;52.038;-1.478;2023-02-04T13:59:41;120;120;
44674;PMS5003;30388;52.038;-1.478;2023-02-04T14:02:08;6;6;
44674;PMS5003;30388;52.038;-1.478;2023-02-04T14:04:35;1;1;
44674;PMS5003;30388;52.038;-1.478;2023-02-04T14:07:03;32;32;
44674;PMS5003;30388;52.038;-1.478;2023-02-04T14:09:30;29;25;
44674;PMS5003;30388;52.038;-1.478;2023-02-04T14:11:58;38;36;
44674;PMS5003;30388;52.038;-1.478;2023-02-04T14:14:26;50;50;
44674;PMS5003;30388;52.038;-1.478;2023-02-04T14:16:53;82;82;
44674;PMS5003;30388;52.038;-1.478;2023-02-04T14:19:20;133;133;
44674;PMS5003;30388;52.038;-1.478;2023-02-04T14:21:47;148;148;
44674;PMS5003;30388;52.038;-1.478;2023-02-04T14:24:15;75;75;
44674;PMS5003;30388;52.038;-1.478;2023-02-04T14:26:42;100;98;
44674;PMS5003;30388;52.038;-1.478;2023-02-04T14:29:09;8;8;
44674;PMS5003;30388;52.038;-1.478;2023-02-04T14:31:36;29;29;
44674;PMS5003;30388;52.038;-1.478;2023-02-04T14:34:03;98;98;
44674;PMS5003;30388;52.038;-1.478;2023-02-04T14:36:30;95;95;
44674;PMS5003;30388;52.038;-1.478;2023-02-04T14:38:57;12;12;
44674;PMS5003;30388;52.038;-1.478;2023-02-04T14:41:25;2;1;
44674;PMS5003;30388;52.038;-1.478;2023-02-04T14:43:52;1;1;
44674;PMS5003;30388;52.038;-1.478;2023-02-04T14:46:20;2;2;
44674;PMS5003;30388;52.038;-1.478;2023-02-04T14:48:47;5;2;
44674;PMS5003;30388;52.038;-1.478;2023-02-04T14:51:14;10;10;
44674;PMS5003;30388;52.038;-1.478;2023-02-04T14:53:42;10;5;
44674;PMS5003;30388;52.038;-1.478;2023-02-04T14:56:09;10;10;
44674;PMS5003;30388;52.038;-1.478;2023-02-04T14:58:36;7;4;
44674;PMS5003;30388;52.038;-1.478;2023-02-04T15:01:03;3;3;
44674;PMS5003;30388;52.038;-1.478;2023-02-04T15:03:31;2;2;
44674;PMS5003;30388;52.038;-1.478;2023-02-04T15:05:57;11;11;
44674;PMS5003;30388;52.038;-1.478;2023-02-04T15:08:24;27;27;
44674;PMS5003;30388;52.038;-1.478;2023-02-04T15:10:52;5;5;
44674;PMS5003;30388;52.038;-1.478;2023-02-04T15:13:18;4;2;
44674;PMS5003;30388;52.038;-1.478;2023-02-04T15:15:45;6;6;
44674;PMS5003;30388;52.038;-1.478;2023-02-04T15:18:13;30;30;
44674;PMS5003;30388;52.038;-1.478;2023-02-04T15:20:40;20;20;
44674;PMS5003;30388;52.038;-1.478;2023-02-04T15:23:08;20;20;
44674;PMS5003;30388;52.038;-1.478;2023-02-04T15:25:35;26;25;
44674;PMS5003;30388;52.038;-1.478;2023-02-04T15:28:02;6;6;
44674;PMS5003;30388;52.038;-1.478;2023-02-04T15:30:29;1;1;
44674;PMS5003;30388;52.038;-1.478;2023-02-04T15:32:56;1;1;
44674;PMS5003;30388;52.038;-1.478;2023-02-04T15:35:24;11;11;
44674;PMS5003;30388;52.038;-1.478;2023-02-04T15:37:51;35;35;
44674;PMS5003;30388;52.038;-1.478;2023-02-04T15:40:18;79;76;
44674;PMS5003;30388;52.038;-1.478;2023-02-04T15:42:46;66;60;
44674;PMS5003;30388;52.038;-1.478;2023-02-04T15:45:13;21;11;
44674;PMS5003;30388;52.038;-1.478;2023-02-04T15:47:40;17;17;
44674;PMS5003;30388;52.038;-1.478;2023-02-04T15:50:08;8;7;
44674;PMS5003;30388;52.038;-1.478;2023-02-04T15:52:35;7;4;
44674;PMS5003;30388;52.038;-1.478;2023-02-04T15:55:02;4;3;